map of ILD home
ILD - Airport
Location
City:  Lleida, Catalonia, Spain
Near (Alt.):Alguaire
Name:Lleida-Alguaire Airport
ICAO:LEDA
IATA:ILD

Details
Type:Airport (Aerodrome, Airfield)
Use:Public/Civil
Latitude:4143'41"N (41.728056)
Longitude:032'07"E (0.535278)
Elevation:1152 ft (351 m)
Variation:0.67E (WMM2015v2 magnetic declination)
0.15 annual change
Runways:1
Longest:8202 × 200 ft (2500 × 61 m), paved

Weather
METAR:LEDA 041400Z 25005KT 170V320 CAVOK 09/M00 Q1025
TAF:LEDA 040800Z 0409/0509 22005KT 9999 FEW025 TX10/0414Z TN00/0506Z
TEMPO 0417/0422 08005KT

Related Locations
Nearby:
Farthest:CHT: 12226 mi / 19675 km
Waitangi [Tuuta], CIT, NZ

Find:

   beyond  
but within

Other Information
Maps:
NOTAMs:
Links:
Sources:

  
  • flag of Spain
  • flag of Catalonia
  • flag of Lleida
  

Sectional Chart

Flight Planning
at skyvector.com

Satellite Image

Google Maps Satellite view

 

Copyright © 2004-2019 Karl L. Swartz. All rights reserved.
The Great Circle Mapper name and logo are trademarks of the Great Circle Mapper.
All other trademarks mentioned herein belong to their respective owners.
Please see credits for attibutions and further copyright information.

  Follow gcmap on Facebook Follow gcmap on Twitter GCmap on LinkedIn

hCard Microformat

Geo Microformat